createdAt,value
2018-08-30T00:01:49.031Z,4.00
2018-08-30T00:04:16.016Z,4.23
2018-08-30T00:06:42.959Z,4.20
2018-08-30T00:09:09.923Z,3.40
2018-08-30T00:11:37.624Z,3.70
2018-08-30T00:14:04.492Z,4.00
2018-08-30T00:16:33.128Z,3.00
2018-08-30T00:19:00.097Z,3.40
2018-08-30T00:21:27.159Z,3.30
2018-08-30T00:23:54.099Z,3.03
2018-08-30T00:26:21.700Z,3.13
2018-08-30T00:28:48.645Z,3.17
2018-08-30T00:31:15.682Z,3.10
2018-08-30T00:33:42.544Z,2.67
2018-08-30T00:36:09.499Z,2.80
2018-08-30T00:38:36.490Z,2.80
2018-08-30T00:41:03.495Z,3.27
2018-08-30T00:43:31.441Z,2.83
2018-08-30T00:45:59.211Z,2.77
2018-08-30T00:48:26.191Z,2.77
2018-08-30T00:50:53.594Z,3.10
2018-08-30T00:53:20.576Z,2.43
2018-08-30T00:55:47.551Z,3.00
2018-08-30T00:58:14.464Z,2.80
2018-08-30T01:00:41.484Z,3.10
2018-08-30T01:03:08.436Z,2.57
2018-08-30T01:05:35.399Z,2.77
2018-08-30T01:08:02.381Z,1.97
2018-08-30T01:10:29.319Z,2.70
2018-08-30T01:12:57.139Z,2.40
2018-08-30T01:15:26.375Z,2.50
2018-08-30T01:17:53.644Z,2.50
2018-08-30T01:20:21.000Z,2.37
2018-08-30T01:22:48.051Z,2.30
2018-08-30T01:25:15.051Z,2.37
2018-08-30T01:27:42.001Z,2.40
2018-08-30T01:30:09.007Z,2.33
2018-08-30T01:32:37.052Z,2.27
2018-08-30T01:35:04.005Z,2.03
2018-08-30T01:37:31.063Z,1.67
2018-08-30T01:39:58.009Z,1.80
2018-08-30T01:42:24.964Z,1.87
2018-08-30T01:44:51.933Z,1.43
2018-08-30T01:47:18.912Z,1.47
2018-08-30T01:49:45.847Z,1.33
2018-08-30T01:52:12.706Z,0.83
2018-08-30T01:54:39.652Z,1.10
2018-08-30T01:57:06.620Z,1.10
2018-08-30T01:59:33.562Z,0.90
2018-08-30T02:02:00.472Z,0.90
2018-08-30T02:04:27.501Z,0.90
2018-08-30T02:06:54.449Z,1.10
2018-08-30T02:09:21.393Z,1.10
2018-08-30T02:11:48.363Z,1.23
2018-08-30T02:14:15.320Z,1.70
2018-08-30T02:16:42.231Z,1.60
2018-08-30T02:19:10.252Z,2.50
2018-08-30T02:21:38.220Z,1.40
2018-08-30T02:24:05.225Z,1.97
2018-08-30T02:26:32.148Z,2.30
2018-08-30T02:28:59.122Z,1.97
2018-08-30T02:31:26.059Z,2.90
2018-08-30T02:33:53.003Z,2.03
2018-08-30T02:36:19.972Z,2.20
2018-08-30T02:38:47.032Z,2.87
2018-08-30T02:41:13.985Z,3.27
2018-08-30T02:43:40.936Z,3.30
2018-08-30T02:46:07.901Z,3.77
2018-08-30T02:48:34.840Z,3.10
2018-08-30T02:51:01.832Z,4.37
2018-08-30T02:53:28.791Z,4.50
2018-08-30T02:55:56.298Z,4.40
2018-08-30T02:58:23.258Z,4.80
2018-08-30T03:00:50.268Z,4.70
2018-08-30T03:03:17.217Z,5.00
2018-08-30T03:05:44.191Z,4.80
2018-08-30T03:08:12.151Z,5.20
2018-08-30T03:10:40.211Z,4.70
2018-08-30T03:13:07.207Z,5.37
2018-08-30T03:15:34.164Z,4.40
2018-08-30T03:18:01.151Z,4.33
2018-08-30T03:20:28.077Z,3.93
2018-08-30T03:22:55.060Z,4.60
2018-08-30T03:25:23.005Z,4.07
2018-08-30T03:27:49.968Z,3.50
2018-08-30T03:30:17.781Z,4.40
2018-08-30T03:32:44.704Z,3.50
2018-08-30T03:35:11.668Z,3.87
2018-08-30T03:37:38.607Z,3.97
2018-08-30T03:40:05.596Z,4.30
2018-08-30T03:42:32.500Z,3.80
2018-08-30T03:44:59.502Z,3.90
2018-08-30T03:47:26.433Z,4.47
2018-08-30T03:49:53.452Z,4.50
2018-08-30T03:52:20.377Z,5.13
2018-08-30T03:54:48.240Z,6.47
2018-08-30T03:57:19.328Z,6.40
2018-08-30T03:59:46.778Z,6.20
2018-08-30T04:02:13.714Z,7.23
2018-08-30T04:04:41.272Z,6.77
2018-08-30T04:07:08.768Z,7.20
2018-08-30T04:09:36.356Z,7.53
2018-08-30T04:12:04.291Z,6.60
2018-08-30T04:14:31.159Z,7.60
2018-08-30T04:16:58.105Z,7.40
2018-08-30T04:19:24.976Z,8.33
2018-08-30T04:21:52.028Z,8.23
2018-08-30T04:24:18.951Z,7.83
2018-08-30T04:26:49.947Z,8.67
2018-08-30T04:29:16.902Z,7.87
2018-08-30T04:31:43.888Z,8.67
2018-08-30T04:34:11.884Z,8.30
2018-08-30T04:36:38.820Z,8.10
2018-08-30T04:39:07.363Z,8.50
2018-08-30T04:41:35.299Z,7.90
2018-08-30T04:44:02.399Z,6.83
2018-08-30T04:46:29.451Z,6.63
2018-08-30T04:48:56.408Z,7.40
2018-08-30T04:51:24.356Z,7.23
2018-08-30T04:53:51.382Z,7.20
2018-08-30T04:56:19.346Z,6.60
2018-08-30T04:58:46.347Z,6.20
2018-08-30T05:01:13.439Z,6.53
2018-08-30T05:03:40.371Z,5.83
2018-08-30T05:06:07.301Z,6.33
2018-08-30T05:08:34.272Z,5.70
2018-08-30T05:11:02.319Z,5.50
2018-08-30T05:13:29.204Z,6.47
2018-08-30T05:15:56.159Z,5.60
2018-08-30T05:18:23.099Z,6.37
2018-08-30T05:20:54.588Z,5.10
2018-08-30T05:23:21.527Z,4.40
2018-08-30T05:25:48.537Z,4.03
2018-08-30T05:28:17.297Z,4.90
2018-08-30T05:30:44.320Z,4.97
2018-08-30T05:33:11.334Z,4.73
2018-08-30T05:35:38.329Z,4.77
2018-08-30T05:38:05.519Z,5.00
2018-08-30T05:40:32.519Z,5.40
2018-08-30T05:42:59.442Z,5.90
2018-08-30T05:45:27.359Z,6.00
2018-08-30T05:47:54.339Z,5.93
2018-08-30T05:50:21.399Z,5.57
2018-08-30T05:52:48.310Z,6.28
2018-08-30T05:55:15.239Z,6.17
2018-08-30T05:57:42.507Z,5.43
2018-08-30T06:00:09.476Z,5.70
2018-08-30T06:02:36.440Z,5.00
2018-08-30T06:05:03.405Z,5.07
2018-08-30T06:07:30.370Z,5.23
2018-08-30T06:09:57.309Z,4.50
2018-08-30T06:12:24.560Z,5.07
2018-08-30T06:14:51.571Z,4.90
2018-08-30T06:17:18.511Z,4.90
2018-08-30T06:19:45.516Z,4.83
2018-08-30T06:22:12.403Z,6.00
2018-08-30T06:24:39.483Z,4.97
2018-08-30T06:27:06.423Z,5.00
2018-08-30T06:29:33.363Z,5.57
2018-08-30T06:32:00.928Z,5.57
2018-08-30T06:34:27.942Z,4.47
2018-08-30T06:36:54.883Z,4.23
2018-08-30T06:39:21.804Z,5.03
2018-08-30T06:41:48.783Z,5.50
2018-08-30T06:44:15.750Z,4.90
2018-08-30T06:46:42.759Z,5.00
2018-08-30T06:49:10.330Z,4.80
2018-08-30T06:51:37.298Z,4.80
2018-08-30T06:54:04.900Z,4.87
2018-08-30T06:56:31.851Z,4.40
2018-08-30T06:58:58.854Z,5.30
2018-08-30T07:01:25.963Z,4.40
2018-08-30T07:03:53.888Z,4.30
2018-08-30T07:06:20.835Z,4.70
2018-08-30T07:08:48.408Z,5.07
2018-08-30T07:11:15.283Z,4.70
2018-08-30T07:13:42.422Z,4.80
2018-08-30T07:16:09.336Z,4.90
2018-08-30T07:18:37.234Z,4.90
2018-08-30T07:21:04.415Z,4.77
2018-08-30T07:23:31.542Z,4.57
2018-08-30T07:26:00.563Z,4.70
2018-08-30T07:28:28.490Z,4.67
2018-08-30T07:30:55.431Z,4.53
2018-08-30T07:33:22.872Z,5.37
2018-08-30T07:35:49.915Z,4.60
2018-08-30T07:38:16.916Z,3.83
2018-08-30T07:40:43.851Z,5.30
2018-08-30T07:43:10.819Z,4.70
2018-08-30T07:45:37.727Z,4.90
2018-08-30T07:48:04.688Z,4.83
2018-08-30T07:50:32.752Z,4.83
2018-08-30T07:53:00.685Z,5.23
2018-08-30T07:55:27.827Z,5.53
2018-08-30T07:57:55.956Z,5.87
2018-08-30T08:00:24.659Z,5.33
2018-08-30T08:02:51.627Z,5.57
2018-08-30T08:05:18.596Z,4.30
2018-08-30T08:07:45.600Z,5.00
2018-08-30T08:10:12.562Z,5.53
2018-08-30T08:12:39.482Z,5.70
2018-08-30T08:15:06.394Z,5.60
2018-08-30T08:17:33.324Z,5.60
2018-08-30T08:20:01.923Z,6.03
2018-08-30T08:22:28.899Z,5.80
2018-08-30T08:24:57.451Z,6.00
2018-08-30T08:27:24.918Z,5.90
2018-08-30T08:29:51.936Z,7.00
2018-08-30T08:32:18.900Z,6.57
2018-08-30T08:34:45.863Z,7.00
2018-08-30T08:37:12.783Z,7.07
2018-08-30T08:39:42.729Z,6.63
2018-08-30T08:42:10.692Z,7.03
2018-08-30T08:44:37.660Z,6.97
2018-08-30T08:47:04.565Z,6.47
2018-08-30T08:49:31.556Z,6.13
2018-08-30T08:51:58.527Z,6.53
2018-08-30T08:54:25.471Z,6.77
2018-08-30T08:56:52.405Z,6.67
2018-08-30T08:59:19.536Z,6.53
2018-08-30T09:01:46.357Z,8.63
2018-08-30T09:04:13.914Z,7.57
2018-08-30T09:06:40.846Z,6.17
2018-08-30T09:09:08.943Z,7.33
2018-08-30T09:11:36.440Z,7.70
2018-08-30T09:14:04.003Z,6.20
2018-08-30T09:16:31.058Z,7.97
2018-08-30T09:18:57.983Z,6.70
2018-08-30T09:21:24.990Z,7.30
2018-08-30T09:23:52.063Z,6.60
2018-08-30T09:26:20.046Z,6.83
2018-08-30T09:28:47.029Z,7.60
2018-08-30T09:31:13.912Z,7.93
2018-08-30T09:33:42.533Z,8.37
2018-08-30T09:36:09.521Z,7.67
2018-08-30T09:38:36.447Z,8.27
2018-08-30T09:41:03.395Z,6.90
2018-08-30T09:43:31.379Z,7.83
2018-08-30T09:45:58.979Z,7.03
2018-08-30T09:48:25.887Z,7.10
2018-08-30T09:50:52.955Z,7.30
2018-08-30T09:53:19.975Z,7.13
2018-08-30T09:55:46.993Z,6.53
2018-08-30T09:58:13.795Z,6.00
2018-08-30T10:00:46.404Z,6.70
2018-08-30T10:03:13.392Z,7.93
2018-08-30T10:05:40.347Z,6.63
2018-08-30T10:08:07.311Z,7.00
2018-08-30T10:10:34.311Z,6.67
2018-08-30T10:13:02.306Z,7.37
2018-08-30T10:15:29.307Z,6.40
2018-08-30T10:17:56.251Z,6.70
2018-08-30T10:20:23.248Z,6.83
2018-08-30T10:22:53.467Z,7.30
2018-08-30T10:25:20.459Z,7.40
2018-08-30T10:27:47.387Z,7.03
2018-08-30T10:30:14.303Z,6.50
2018-08-30T10:32:41.380Z,6.80
2018-08-30T10:35:08.347Z,7.00
2018-08-30T10:37:36.023Z,7.30
2018-08-30T10:40:03.055Z,6.70
2018-08-30T10:42:30.052Z,7.67
2018-08-30T10:44:58.535Z,7.90
2018-08-30T10:47:25.484Z,7.83
2018-08-30T10:49:53.079Z,8.40
2018-08-30T10:52:20.036Z,7.90
2018-08-30T10:54:47.017Z,7.83
2018-08-30T10:57:13.940Z,7.50
2018-08-30T10:59:40.810Z,8.10
2018-08-30T11:02:08.595Z,8.03
2018-08-30T11:04:35.503Z,8.33
2018-08-30T11:07:03.551Z,8.60
2018-08-30T11:09:31.079Z,7.90
2018-08-30T11:11:59.059Z,8.20
2018-08-30T11:14:26.051Z,7.10
2018-08-30T11:16:52.997Z,8.50
2018-08-30T11:19:19.973Z,7.80
2018-08-30T11:21:46.903Z,8.20
2018-08-30T11:24:13.858Z,7.07
2018-08-30T11:26:40.837Z,8.40
2018-08-30T11:29:07.755Z,7.37
2018-08-30T11:31:34.721Z,7.33
2018-08-30T11:34:01.692Z,7.40
2018-08-30T11:36:28.659Z,7.97
2018-08-30T11:38:55.604Z,7.93
2018-08-30T11:41:22.591Z,7.97
2018-08-30T11:43:49.539Z,8.70
2018-08-30T11:46:16.474Z,8.43
2018-08-30T11:48:43.438Z,8.63
2018-08-30T11:51:10.475Z,9.30
2018-08-30T11:53:37.361Z,8.70
2018-08-30T11:56:04.329Z,8.40
2018-08-30T11:58:31.264Z,7.97
2018-08-30T12:00:58.324Z,8.80
2018-08-30T12:03:25.192Z,8.30
2018-08-30T12:05:52.627Z,9.03
2018-08-30T12:08:19.739Z,9.00
2018-08-30T12:10:46.676Z,8.77
2018-08-30T12:13:13.539Z,8.63
2018-08-30T12:15:40.516Z,8.90
2018-08-30T12:18:07.444Z,7.67
2018-08-30T12:20:34.454Z,8.50
2018-08-30T12:23:01.408Z,8.10
2018-08-30T12:25:29.046Z,8.27
2018-08-30T12:27:55.983Z,8.83
2018-08-30T12:30:23.948Z,9.40
2018-08-30T12:32:50.921Z,8.40
2018-08-30T12:35:17.893Z,8.43
2018-08-30T12:37:44.811Z,8.43
2018-08-30T12:40:11.936Z,7.90
2018-08-30T12:42:38.807Z,9.43
2018-08-30T12:45:06.710Z,8.17
2018-08-30T12:47:34.071Z,8.00
2018-08-30T12:50:01.691Z,8.03
2018-08-30T12:52:32.134Z,8.20
2018-08-30T12:54:59.622Z,8.23
2018-08-30T12:57:27.264Z,9.10
2018-08-30T12:59:54.251Z,7.83
2018-08-30T13:02:21.202Z,8.67
2018-08-30T13:04:48.251Z,7.77
2018-08-30T13:07:16.784Z,8.40
2018-08-30T13:09:43.757Z,8.23
2018-08-30T13:12:10.960Z,8.30
2018-08-30T13:14:37.748Z,8.87
2018-08-30T13:17:04.639Z,8.90
2018-08-30T13:19:31.868Z,9.20
2018-08-30T13:21:58.691Z,8.77
2018-08-30T13:24:25.661Z,8.90
2018-08-30T13:26:52.606Z,8.97
2018-08-30T13:29:19.582Z,8.93
2018-08-30T13:31:46.470Z,8.40
2018-08-30T13:34:14.499Z,8.60
2018-08-30T13:36:41.526Z,9.03
2018-08-30T13:39:09.214Z,8.90
2018-08-30T13:41:36.168Z,7.83
2018-08-30T13:44:03.324Z,7.17
2018-08-30T13:46:30.267Z,8.30
2018-08-30T13:48:57.256Z,7.57
2018-08-30T13:51:24.175Z,9.18
2018-08-30T13:53:51.179Z,9.35
2018-08-30T13:56:18.487Z,9.20
2018-08-30T13:58:45.214Z,7.90
2018-08-30T14:01:12.470Z,7.60
2018-08-30T14:03:38.999Z,9.47
2018-08-30T14:06:05.916Z,7.20
2018-08-30T14:08:32.863Z,8.63
2018-08-30T14:11:01.480Z,7.10
2018-08-30T14:13:28.292Z,6.20
2018-08-30T14:15:55.619Z,7.00
2018-08-30T14:18:23.303Z,6.80
2018-08-30T14:20:50.264Z,7.37
2018-08-30T14:23:18.096Z,7.63
2018-08-30T14:25:45.738Z,7.30
2018-08-30T14:28:12.673Z,7.37
2018-08-30T14:30:40.731Z,7.80
2018-08-30T14:33:11.346Z,7.80
2018-08-30T14:35:38.239Z,8.30
2018-08-30T14:38:05.219Z,8.03
2018-08-30T14:40:32.573Z,8.10
2018-08-30T14:42:59.415Z,8.60
2018-08-30T14:45:26.257Z,8.87
2018-08-30T14:47:53.331Z,8.40
2018-08-30T14:50:20.267Z,8.10
2018-08-30T14:52:47.246Z,8.10
2018-08-30T14:55:15.194Z,9.33
2018-08-30T14:57:42.180Z,8.53
2018-08-30T15:00:09.196Z,7.93
2018-08-30T15:02:36.099Z,8.83
2018-08-30T15:05:03.074Z,9.00
2018-08-30T15:07:29.980Z,8.37
2018-08-30T15:09:57.005Z,9.10
2018-08-30T15:12:24.702Z,8.90
2018-08-30T15:14:51.657Z,8.87
2018-08-30T15:17:18.677Z,8.80
2018-08-30T15:19:45.702Z,8.20
2018-08-30T15:22:12.699Z,7.53
2018-08-30T15:24:39.658Z,8.57
2018-08-30T15:27:06.668Z,8.20
2018-08-30T15:29:33.626Z,9.20
2018-08-30T15:32:00.563Z,9.43
2018-08-30T15:34:28.611Z,10.13
2018-08-30T15:36:55.594Z,10.20
2018-08-30T15:39:22.484Z,9.20
2018-08-30T15:41:49.488Z,10.03
2018-08-30T15:44:16.419Z,9.40
2018-08-30T15:46:43.423Z,9.50
2018-08-30T15:49:10.612Z,9.60
2018-08-30T15:51:38.345Z,9.30
2018-08-30T15:54:05.431Z,9.17
2018-08-30T15:56:33.480Z,9.60
2018-08-30T15:59:01.213Z,10.00
2018-08-30T16:01:28.204Z,9.77
2018-08-30T16:03:55.159Z,9.93
2018-08-30T16:06:22.103Z,9.57
2018-08-30T16:08:49.096Z,9.50
2018-08-30T16:11:16.110Z,9.40
2018-08-30T16:13:43.008Z,8.87
2018-08-30T16:16:09.960Z,9.30
2018-08-30T16:18:36.957Z,9.63
2018-08-30T16:21:03.838Z,9.20
2018-08-30T16:23:32.134Z,9.33
2018-08-30T16:25:59.256Z,9.20
2018-08-30T16:28:28.810Z,9.73
2018-08-30T16:30:55.801Z,9.60
2018-08-30T16:33:22.839Z,9.53
2018-08-30T16:35:49.922Z,8.90
2018-08-30T16:38:17.775Z,10.43
2018-08-30T16:40:45.340Z,10.10
2018-08-30T16:43:13.357Z,9.77
2018-08-30T16:45:40.563Z,10.00
2018-08-30T16:48:07.572Z,9.37
2018-08-30T16:50:34.795Z,10.07
2018-08-30T16:53:03.572Z,9.47
2018-08-30T16:55:30.467Z,10.23
2018-08-30T16:57:57.431Z,10.03
2018-08-30T17:00:25.212Z,9.53
2018-08-30T17:02:52.139Z,8.93
2018-08-30T17:05:19.139Z,9.60
2018-08-30T17:07:46.143Z,8.90
2018-08-30T17:10:13.143Z,8.90
2018-08-30T17:12:40.091Z,8.67
2018-08-30T17:15:07.031Z,9.47
2018-08-30T17:17:34.085Z,9.00
2018-08-30T17:20:00.963Z,9.40
2018-08-30T17:22:27.923Z,8.00
2018-08-30T17:24:54.902Z,10.13
2018-08-30T17:27:22.898Z,9.30
2018-08-30T17:29:50.099Z,10.40
2018-08-30T17:32:17.117Z,10.07
2018-08-30T17:34:44.361Z,9.83
2018-08-30T17:37:11.420Z,9.13
2018-08-30T17:39:39.414Z,9.80
2018-08-30T17:42:06.368Z,9.50
2018-08-30T17:44:33.307Z,9.73
2018-08-30T17:47:00.279Z,10.23
2018-08-30T17:49:27.233Z,10.03
2018-08-30T17:51:54.804Z,10.80
2018-08-30T17:54:21.892Z,10.90
2018-08-30T17:56:48.832Z,11.50
2018-08-30T17:59:15.796Z,11.23
2018-08-30T18:01:43.172Z,10.90
2018-08-30T18:04:11.140Z,10.30
2018-08-30T18:06:38.259Z,11.63
2018-08-30T18:09:06.221Z,10.70
2018-08-30T18:11:33.125Z,10.60
2018-08-30T18:14:00.092Z,11.53
2018-08-30T18:16:27.136Z,11.50
2018-08-30T18:18:54.111Z,10.17
2018-08-30T18:21:21.751Z,11.63
2018-08-30T18:23:48.697Z,10.33
2018-08-30T18:26:15.732Z,9.73
2018-08-30T18:28:42.710Z,10.47
2018-08-30T18:31:09.692Z,9.67
2018-08-30T18:33:36.659Z,10.10
2018-08-30T18:36:03.620Z,11.17
2018-08-30T18:38:30.579Z,11.77
2018-08-30T18:40:57.548Z,11.53
2018-08-30T18:43:24.548Z,12.78
2018-08-30T18:45:51.588Z,11.87
2018-08-30T18:48:18.522Z,12.37
2018-08-30T18:50:46.318Z,10.57
2018-08-30T18:53:13.215Z,11.13
2018-08-30T18:55:40.235Z,10.77
2018-08-30T18:58:07.205Z,11.70
2018-08-30T19:00:34.099Z,12.20
2018-08-30T19:03:01.057Z,12.00
2018-08-30T19:05:28.060Z,13.27
2018-08-30T19:07:54.993Z,13.60
2018-08-30T19:10:22.017Z,12.10
2018-08-30T19:12:48.899Z,13.17
2018-08-30T19:15:21.684Z,12.30
2018-08-30T19:17:55.385Z,13.00
2018-08-30T19:20:23.691Z,12.27
2018-08-30T19:22:50.644Z,11.37
2018-08-30T19:25:23.285Z,11.40
2018-08-30T19:27:51.021Z,12.10
2018-08-30T19:30:23.579Z,12.40
2018-08-30T19:32:50.559Z,11.03
2018-08-30T19:35:23.244Z,11.37
2018-08-30T19:37:51.828Z,11.50
2018-08-30T19:40:38.431Z,12.23
2018-08-30T19:43:05.430Z,12.70
2018-08-30T19:45:32.691Z,12.27
2018-08-30T19:48:00.624Z,12.13
2018-08-30T19:50:28.268Z,11.20
2018-08-30T19:52:55.216Z,12.73
2018-08-30T19:55:22.185Z,11.73
2018-08-30T19:57:49.168Z,11.30
2018-08-30T20:00:16.100Z,11.10
2018-08-30T20:02:43.088Z,11.77
2018-08-30T20:05:09.992Z,11.53
2018-08-30T20:07:36.977Z,11.10
2018-08-30T20:10:04.812Z,11.90
2018-08-30T20:12:32.811Z,11.55
2018-08-30T20:14:59.789Z,11.07
2018-08-30T20:17:27.337Z,12.07
2018-08-30T20:19:54.301Z,11.50
2018-08-30T20:22:21.252Z,11.60
2018-08-30T20:24:48.240Z,11.97
2018-08-30T20:27:15.247Z,11.00
2018-08-30T20:29:42.249Z,12.73
2018-08-30T20:32:09.155Z,11.50
2018-08-30T20:34:36.117Z,12.47
2018-08-30T20:37:03.067Z,12.60
2018-08-30T20:39:30.088Z,12.37
2018-08-30T20:41:57.071Z,12.47
2018-08-30T20:44:24.008Z,12.27
2018-08-30T20:46:51.005Z,12.80
2018-08-30T20:49:17.895Z,13.00
2018-08-30T20:51:45.349Z,11.83
2018-08-30T20:54:12.327Z,11.30
2018-08-30T20:56:39.298Z,11.93
2018-08-30T20:59:06.339Z,12.73
2018-08-30T21:01:33.951Z,12.80
2018-08-30T21:04:01.928Z,12.70
2018-08-30T21:06:29.249Z,11.70
2018-08-30T21:08:56.195Z,12.20
2018-08-30T21:11:23.163Z,12.90
2018-08-30T21:13:50.087Z,11.73
2018-08-30T21:16:17.104Z,12.40
2018-08-30T21:18:44.073Z,12.80
2018-08-30T21:21:11.087Z,12.60
2018-08-30T21:23:38.112Z,13.43
2018-08-30T21:26:05.347Z,12.70
2018-08-30T21:28:32.314Z,12.83
2018-08-30T21:30:59.243Z,11.90
2018-08-30T21:33:26.240Z,12.07
2018-08-30T21:35:53.179Z,12.77
2018-08-30T21:38:20.133Z,12.80
2018-08-30T21:40:47.887Z,11.87
2018-08-30T21:43:16.894Z,11.80
2018-08-30T21:45:43.863Z,12.30
2018-08-30T21:48:10.816Z,11.00
2018-08-30T21:50:37.793Z,11.60
2018-08-30T21:53:04.718Z,11.07
2018-08-30T21:55:31.676Z,12.23
2018-08-30T21:57:58.619Z,11.60
2018-08-30T22:00:26.192Z,11.47
2018-08-30T22:02:53.183Z,10.73
2018-08-30T22:05:20.123Z,11.83
2018-08-30T22:07:47.079Z,11.60
2018-08-30T22:10:15.036Z,9.77
2018-08-30T22:12:42.023Z,10.00
2018-08-30T22:15:08.993Z,10.50
2018-08-30T22:17:35.939Z,9.93
2018-08-30T22:20:02.863Z,9.10
2018-08-30T22:22:29.849Z,9.73
2018-08-30T22:24:56.941Z,8.57
2018-08-30T22:27:23.866Z,8.80
2018-08-30T22:29:50.859Z,8.70
2018-08-30T22:32:17.751Z,7.50
2018-08-30T22:34:45.768Z,7.27
2018-08-30T22:37:12.750Z,8.70
2018-08-30T22:39:42.470Z,6.40
2018-08-30T22:42:09.387Z,6.93
2018-08-30T22:44:36.356Z,6.40
2018-08-30T22:47:03.315Z,6.30
2018-08-30T22:49:30.300Z,5.57
2018-08-30T22:51:57.227Z,6.20
2018-08-30T22:54:24.218Z,5.20
2018-08-30T22:56:51.169Z,6.00
2018-08-30T22:59:18.103Z,5.10
2018-08-30T23:01:45.059Z,3.83
2018-08-30T23:04:12.002Z,3.70
2018-08-30T23:06:39.002Z,3.57
2018-08-30T23:09:06.859Z,3.70
2018-08-30T23:11:33.814Z,3.80
2018-08-30T23:14:00.775Z,3.27
2018-08-30T23:16:28.772Z,3.10
2018-08-30T23:18:55.708Z,3.30
2018-08-30T23:21:23.483Z,2.87
2018-08-30T23:23:50.447Z,2.83
2018-08-30T23:26:17.404Z,3.07
2018-08-30T23:28:44.358Z,2.80
2018-08-30T23:31:11.319Z,2.60
2018-08-30T23:33:39.060Z,2.60
2018-08-30T23:36:06.049Z,2.47
2018-08-30T23:38:32.975Z,3.13
2018-08-30T23:41:00.489Z,2.60
2018-08-30T23:43:28.471Z,2.60
2018-08-30T23:45:55.479Z,2.90
2018-08-30T23:48:22.828Z,2.60
2018-08-30T23:50:49.747Z,2.43
2018-08-30T23:53:16.707Z,2.67
2018-08-30T23:55:43.665Z,2.30
2018-08-30T23:58:22.246Z,2.50
